Time;durP1;ratioP1;P1;durP2;ratioP2;P2;SDS_P1;SDS_P2;PMS_P1;PMS_P2;Temp;Humidity;BMP_temperature;BMP_pressure;BME280_temperature;BME280_humidity;BME280_pressure;Samples;Min_cycle;Max_cycle;Signal;HPM_P1;HPM_P2
2024/01/29 00:00:10;;;;;;;100.80;65.60;;;;;;;-2.07;100.00;100932.07;109426;1251;59306;-73
2024/01/29 00:02:38;;;;;;;103.20;67.90;;;;;;;-2.11;100.00;100937.23;109454;1251;64576;-72
2024/01/29 00:05:05;;;;;;;96.10;63.60;;;;;;;-2.13;100.00;100930.95;109507;1251;60008;-74
2024/01/29 00:07:31;;;;;;;105.20;66.60;;;;;;;-2.13;100.00;100926.58;109461;1251;63594;-74
2024/01/29 00:09:58;;;;;;;95.90;64.30;;;;;;;-2.15;100.00;100927.07;109422;1251;58930;-73
2024/01/29 00:12:24;;;;;;;101.20;66.20;;;;;;;-2.18;100.00;100925.46;109386;1252;59155;-73
2024/01/29 00:14:51;;;;;;;100.20;65.70;;;;;;;-2.22;100.00;100920.00;109461;1251;65937;-72
2024/01/29 00:17:40;;;;;;;102.50;67.50;;;;;;;-2.26;100.00;100913.30;109368;1253;60146;-72
2024/01/29 00:20:07;;;;;;;108.20;66.70;;;;;;;-2.29;100.00;100908.91;109382;1254;65016;-73
2024/01/29 00:22:33;;;;;;;106.60;67.60;;;;;;;-2.31;100.00;100908.88;109347;1254;59036;-73
2024/01/29 00:25:00;;;;;;;111.20;68.60;;;;;;;-2.33;100.00;100904.50;109383;1253;58920;-73
2024/01/29 00:27:27;;;;;;;111.90;70.30;;;;;;;-2.34;100.00;100901.17;109349;1254;67366;-74
2024/01/29 00:29:54;;;;;;;109.00;71.10;;;;;;;-2.36;100.00;100904.27;109427;1254;61238;-74
2024/01/29 00:32:21;;;;;;;114.80;70.20;;;;;;;-2.38;100.00;100907.02;109083;1254;65098;-73
2024/01/29 00:34:47;;;;;;;117.60;73.70;;;;;;;-2.39;100.00;100913.80;109351;1254;59028;-72
2024/01/29 00:37:14;;;;;;;123.70;77.70;;;;;;;-2.39;100.00;100912.77;109478;1251;59093;-73
2024/01/29 00:39:41;;;;;;;117.30;80.30;;;;;;;-2.36;100.00;100909.66;109450;1251;67145;-73
2024/01/29 00:42:07;;;;;;;122.90;78.50;;;;;;;-2.35;100.00;100915.77;109466;1251;61074;-74
2024/01/29 00:44:34;;;;;;;134.00;84.20;;;;;;;-2.34;100.00;100913.20;109443;1251;63842;-73
2024/01/29 00:47:00;;;;;;;148.60;90.00;;;;;;;-2.33;100.00;100915.63;109454;1251;58935;-72
2024/01/29 00:49:31;;;;;;;134.50;84.00;;;;;;;-2.33;100.00;100918.25;109444;1251;59115;-72
2024/01/29 00:51:58;;;;;;;139.50;86.00;;;;;;;-2.33;100.00;100918.60;109479;1251;66047;-73
2024/01/29 00:54:25;;;;;;;121.30;80.70;;;;;;;-2.35;100.00;100920.30;109491;1255;61091;-72
2024/01/29 00:56:51;;;;;;;132.00;82.60;;;;;;;-2.36;100.00;100923.60;109483;1251;65383;-74
2024/01/29 00:59:18;;;;;;;127.30;83.70;;;;;;;-2.36;100.00;100926.55;109445;1251;59214;-73
2024/01/29 01:01:44;;;;;;;140.80;91.80;;;;;;;-2.38;100.00;100927.76;109492;1251;59033;-72
2024/01/29 01:04:11;;;;;;;118.20;79.30;;;;;;;-2.39;100.00;100927.02;108745;1251;1002928;-73
2024/01/29 01:06:38;;;;;;;120.00;78.20;;;;;;;-2.40;100.00;100929.09;108672;1251;1002422;-73
2024/01/29 01:09:04;;;;;;;127.00;81.80;;;;;;;-2.40;100.00;100936.59;108696;1251;1002689;-72
2024/01/29 01:11:31;;;;;;;132.30;83.80;;;;;;;-2.41;100.00;100937.79;109398;1251;59048;-72
2024/01/29 01:13:58;;;;;;;124.30;81.00;;;;;;;-2.40;100.00;100941.29;109458;1251;58895;-73
2024/01/29 01:16:24;;;;;;;116.00;79.60;;;;;;;-2.39;100.00;100941.84;109485;1251;66899;-74
2024/01/29 01:18:51;;;;;;;111.40;75.60;;;;;;;-2.38;100.00;100945.66;109472;1251;61062;-73
2024/01/29 01:21:18;;;;;;;124.50;80.80;;;;;;;-2.38;100.00;100946.02;109186;1251;65448;-72
2024/01/29 01:23:44;;;;;;;122.20;81.70;;;;;;;-2.38;100.00;100952.81;109145;1251;58896;-73
2024/01/29 01:26:11;;;;;;;121.40;80.20;;;;;;;-2.38;100.00;100954.20;109452;1251;59039;-73
2024/01/29 01:28:37;;;;;;;122.10;79.80;;;;;;;-2.38;100.00;100958.72;109446;1251;65717;-72
2024/01/29 01:31:04;;;;;;;125.20;79.00;;;;;;;-2.39;100.00;100961.66;109413;1251;61135;-73
2024/01/29 01:33:31;;;;;;;115.80;76.40;;;;;;;-2.40;100.00;100961.81;108692;1251;1002387;-72
2024/01/29 01:35:57;;;;;;;119.80;79.40;;;;;;;-2.40;100.00;100960.79;109450;1251;59076;-72
2024/01/29 01:38:24;;;;;;;118.00;80.20;;;;;;;-2.39;100.00;100962.55;109418;1252;59075;-73
2024/01/29 01:40:50;;;;;;;120.60;81.00;;;;;;;-2.39;100.00;100970.55;109473;1251;66940;-74
2024/01/29 01:43:22;;;;;;;120.40;77.50;;;;;;;-2.42;100.00;100975.20;109493;1251;60022;-73
2024/01/29 01:46:24;;;;;;;114.20;74.20;;;;;;;-2.46;100.00;100977.20;109477;1251;65100;-73
2024/01/29 01:48:53;;;;;;;111.60;75.90;;;;;;;-2.48;100.00;100977.70;109414;1251;59028;-74
2024/01/29 01:51:23;;;;;;;107.50;70.10;;;;;;;-2.46;100.00;100970.25;109462;1251;58982;-72
2024/01/29 01:53:53;;;;;;;112.50;75.40;;;;;;;-2.49;100.00;100962.18;109468;1251;67028;-74
2024/01/29 01:56:20;;;;;;;109.80;70.10;;;;;;;-2.54;100.00;100956.71;108753;1251;1002876;-74
2024/01/29 01:58:47;;;;;;;114.00;73.40;;;;;;;-2.60;100.00;100959.38;109485;1251;65084;-74
2024/01/29 02:01:14;;;;;;;103.50;69.70;;;;;;;-2.66;100.00;100958.92;109482;1251;59241;-73
2024/01/29 02:03:42;;;;;;;106.30;70.60;;;;;;;-2.72;100.00;100955.87;109414;1251;59039;-72
2024/01/29 02:06:10;;;;;;;105.70;68.00;;;;;;;-2.77;100.00;100952.98;109483;1251;66097;-73
2024/01/29 02:08:38;;;;;;;104.60;68.60;;;;;;;-2.81;100.00;100951.87;109453;1251;69704;-73
2024/01/29 02:11:04;;;;;;;104.10;69.40;;;;;;;-2.84;100.00;100947.97;109520;1251;64180;-72
2024/01/29 02:13:31;;;;;;;114.20;72.80;;;;;;;-2.89;100.00;100945.81;108650;1251;1002440;-74
2024/01/29 02:15:59;;;;;;;114.30;71.50;;;;;;;-2.92;100.00;100939.83;109460;1251;59183;-73
2024/01/29 02:18:25;;;;;;;110.30;71.90;;;;;;;-2.95;100.00;100939.59;109468;1251;67087;-73
2024/01/29 02:20:52;;;;;;;112.40;71.50;;;;;;;-2.99;100.00;100935.86;109486;1251;61041;-73
2024/01/29 02:23:19;;;;;;;111.00;73.00;;;;;;;-3.04;100.00;100936.29;109491;1251;64227;-73
2024/01/29 02:25:45;;;;;;;112.10;73.10;;;;;;;-3.08;100.00;100935.52;109472;1251;59002;-73
2024/01/29 02:28:12;;;;;;;106.10;70.60;;;;;;;-3.12;100.00;100931.28;109484;1251;59420;-73
2024/01/29 02:30:39;;;;;;;103.60;70.40;;;;;;;-3.16;100.00;100930.66;109458;1251;66162;-74
2024/01/29 02:33:05;;;;;;;119.50;76.70;;;;;;;-3.19;100.00;100933.91;108772;1251;1002242;-73
2024/01/29 02:35:32;;;;;;;110.50;73.80;;;;;;;-3.18;100.00;100937.41;109472;1251;65088;-73
2024/01/29 02:37:59;;;;;;;116.50;77.60;;;;;;;-3.16;100.00;100942.15;109444;1251;58982;-73
2024/01/29 02:40:25;;;;;;;117.70;73.60;;;;;;;-3.13;100.00;100940.64;109269;1251;59301;-72
2024/01/29 02:42:52;;;;;;;115.60;74.80;;;;;;;-3.11;100.00;100934.08;109484;1251;67341;-72
2024/01/29 02:45:18;;;;;;;105.70;70.80;;;;;;;-3.13;100.00;100931.08;109134;1251;59268;-72
2024/01/29 02:47:45;;;;;;;108.80;70.40;;;;;;;-3.17;100.00;100927.52;109488;1251;65052;-74
2024/01/29 02:50:12;;;;;;;110.00;71.60;;;;;;;-3.21;100.00;100921.02;109444;1251;59126;-73
2024/01/29 02:52:38;;;;;;;121.20;73.90;;;;;;;-3.25;100.00;100914.84;109347;1251;58991;-73
2024/01/29 02:55:05;;;;;;;108.00;70.20;;;;;;;-3.30;100.00;100912.14;109482;1251;67243;-73
2024/01/29 02:57:33;;;;;;;115.40;73.00;;;;;;;-3.36;100.00;100909.24;109478;1251;60995;-74
2024/01/29 02:59:59;;;;;;;112.80;71.30;;;;;;;-3.41;100.00;100912.98;109308;1251;64228;-73
2024/01/29 03:02:46;;;;;;;109.70;72.00;;;;;;;-3.43;100.00;100908.75;109328;1252;59198;-75
2024/01/29 03:05:13;;;;;;;116.20;72.50;;;;;;;-3.44;100.00;100905.44;109348;1253;59035;-73
2024/01/29 03:07:39;;;;;;;108.90;72.30;;;;;;;-3.46;100.00;100907.29;108580;1253;1002568;-73
2024/01/29 03:10:06;;;;;;;114.00;72.70;;;;;;;-3.49;100.00;100906.36;108608;1254;1002412;-74
2024/01/29 03:12:33;;;;;;;116.20;74.00;;;;;;;-3.51;100.00;100906.34;109119;1254;64262;-72
2024/01/29 03:14:59;;;;;;;118.40;76.80;;;;;;;-3.52;100.00;100907.68;109365;1254;59057;-73
2024/01/29 03:17:26;;;;;;;123.90;77.30;;;;;;;-3.50;100.00;100906.17;109077;1253;59470;-73
2024/01/29 03:19:53;;;;;;;110.50;75.70;;;;;;;-3.48;100.00;100908.98;108578;1254;1002608;-73
2024/01/29 03:22:20;;;;;;;115.10;72.30;;;;;;;-3.49;100.00;100914.70;109455;1251;60098;-73
2024/01/29 03:24:46;;;;;;;111.60;73.20;;;;;;;-3.49;100.00;100917.31;109434;1251;65503;-72
2024/01/29 03:27:13;;;;;;;124.60;80.30;;;;;;;-3.47;100.00;100921.17;109449;1251;59015;-72
2024/01/29 03:29:39;;;;;;;123.10;79.60;;;;;;;-3.43;100.00;100926.98;109460;1251;59063;-74
2024/01/29 03:32:06;;;;;;;113.80;74.90;;;;;;;-3.40;100.00;100927.05;109439;1254;67306;-73
2024/01/29 03:34:32;;;;;;;124.40;80.30;;;;;;;-3.37;100.00;100922.58;109505;1251;60108;-74
2024/01/29 03:36:59;;;;;;;119.20;75.50;;;;;;;-3.37;100.00;100920.17;109433;1251;63980;-72
2024/01/29 03:39:26;;;;;;;121.70;80.80;;;;;;;-3.35;100.00;100916.73;109441;1251;58963;-73
2024/01/29 03:41:52;;;;;;;121.60;79.30;;;;;;;-3.37;100.00;100912.86;109467;1251;59106;-73
2024/01/29 03:44:19;;;;;;;118.30;74.00;;;;;;;-3.41;100.00;100908.08;109482;1251;67123;-73
2024/01/29 03:46:45;;;;;;;112.10;72.30;;;;;;;-3.46;100.00;100901.39;109478;1251;61148;-74
2024/01/29 03:49:12;;;;;;;107.60;70.50;;;;;;;-3.51;100.00;100903.20;109427;1251;65052;-74
2024/01/29 03:51:39;;;;;;;107.40;70.20;;;;;;;-3.57;100.00;100903.59;109396;1251;59006;-73
2024/01/29 03:54:05;;;;;;;114.50;70.90;;;;;;;-3.63;100.00;100904.16;109467;1251;59233;-74
2024/01/29 03:56:32;;;;;;;115.60;72.10;;;;;;;-3.66;100.00;100901.14;109430;1251;65980;-73
2024/01/29 03:58:58;;;;;;;113.90;73.50;;;;;;;-3.65;100.00;100901.51;109521;1251;61078;-72
2024/01/29 04:01:28;;;;;;;106.70;68.00;;;;;;;-3.65;100.00;100903.42;109470;1251;65180;-74
2024/01/29 04:03:55;;;;;;;106.10;68.90;;;;;;;-3.62;100.00;100898.62;109442;1251;59050;-73
2024/01/29 04:06:22;;;;;;;108.60;71.90;;;;;;;-3.58;100.00;100891.23;109482;1251;59197;-72
2024/01/29 04:08:49;;;;;;;117.70;77.90;;;;;;;-3.57;100.00;100886.57;109438;1251;67069;-73
2024/01/29 04:11:15;;;;;;;120.10;79.20;;;;;;;-3.59;100.00;100883.93;109378;1251;60797;-73
2024/01/29 04:13:42;;;;;;;109.70;75.50;;;;;;;-3.59;100.00;100879.73;109489;1251;65058;-74
2024/01/29 04:16:10;;;;;;;112.40;72.20;;;;;;;-3.59;100.00;100879.76;109453;1251;58981;-73
2024/01/29 04:18:38;;;;;;;111.50;69.50;;;;;;;-3.57;100.00;100879.98;109371;1251;59046;-73
2024/01/29 04:21:08;;;;;;;101.00;65.30;;;;;;;-3.54;100.00;100876.90;109451;1251;67066;-74
2024/01/29 04:23:35;;;;;;;105.60;66.90;;;;;;;-3.53;100.00;100875.55;109469;1251;61272;-73
2024/01/29 04:26:02;;;;;;;104.50;66.30;;;;;;;-3.51;100.00;100875.21;109441;1251;65132;-73
2024/01/29 04:28:29;;;;;;;105.50;67.60;;;;;;;-3.50;100.00;100871.60;109472;1251;59013;-73
2024/01/29 04:30:55;;;;;;;98.10;62.20;;;;;;;-3.46;100.00;100868.20;109438;1251;60062;-72
2024/01/29 04:33:22;;;;;;;94.80;61.90;;;;;;;-3.38;100.00;100872.88;109469;1251;66824;-73
2024/01/29 04:35:48;;;;;;;107.60;67.30;;;;;;;-3.34;100.00;100876.27;109443;1251;60105;-73
2024/01/29 04:38:15;;;;;;;94.00;59.20;;;;;;;-3.32;100.00;100881.34;109495;1251;65047;-74
2024/01/29 04:40:42;;;;;;;100.30;64.10;;;;;;;-3.31;100.00;100886.07;109435;1251;58996;-74
2024/01/29 04:43:08;;;;;;;89.70;58.60;;;;;;;-3.26;100.00;100887.01;109471;1251;58999;-73
2024/01/29 04:45:35;;;;;;;96.40;60.70;;;;;;;-3.23;100.00;100883.08;109492;1251;65919;-73
2024/01/29 04:48:02;;;;;;;97.00;60.60;;;;;;;-3.19;100.00;100878.64;109490;1251;60051;-73
2024/01/29 04:50:28;;;;;;;99.10;62.70;;;;;;;-3.17;100.00;100875.71;109476;1251;65006;-74
2024/01/29 04:52:55;;;;;;;102.90;66.60;;;;;;;-3.14;100.00;100873.52;109404;1251;59067;-73
2024/01/29 04:55:22;;;;;;;105.30;68.20;;;;;;;-3.08;100.00;100872.23;109402;1251;59012;-74
2024/01/29 04:57:48;;;;;;;105.20;66.70;;;;;;;-3.03;100.00;100871.96;109463;1251;66787;-73
2024/01/29 05:00:15;;;;;;;107.40;71.70;;;;;;;-3.02;100.00;100870.25;109455;1251;59984;-73
2024/01/29 05:02:42;;;;;;;106.20;69.70;;;;;;;-3.03;100.00;100870.40;109124;1251;65146;-73
2024/01/29 05:05:08;;;;;;;108.30;69.40;;;;;;;-3.09;100.00;100870.30;109484;1251;58921;-73
2024/01/29 05:07:35;;;;;;;101.60;66.20;;;;;;;-3.13;100.00;100872.14;109452;1251;59145;-73
2024/01/29 05:10:02;;;;;;;104.30;67.10;;;;;;;-3.16;100.00;100873.48;109477;1251;66948;-74
2024/01/29 05:12:29;;;;;;;100.40;64.10;;;;;;;-3.21;100.00;100871.63;109477;1251;59975;-73
2024/01/29 05:14:56;;;;;;;99.60;65.50;;;;;;;-3.25;100.00;100871.21;109455;1251;65322;-74
2024/01/29 05:17:22;;;;;;;102.20;65.30;;;;;;;-3.30;100.00;100870.77;109266;1251;59037;-74
2024/01/29 05:19:49;;;;;;;97.10;63.10;;;;;;;-3.34;100.00;100870.35;108536;1254;1002862;-73
2024/01/29 05:22:16;;;;;;;97.20;64.80;;;;;;;-3.39;100.00;100870.41;108733;1251;1002369;-74
2024/01/29 05:24:42;;;;;;;98.60;64.00;;;;;;;-3.44;100.00;100865.81;108714;1251;1003035;-73
2024/01/29 05:27:09;;;;;;;99.20;66.20;;;;;;;-3.47;100.00;100872.87;109437;1251;63991;-73
2024/01/29 05:29:35;;;;;;;102.20;61.00;;;;;;;-3.49;100.00;100875.79;109433;1251;58969;-73
2024/01/29 05:32:02;;;;;;;95.20;63.00;;;;;;;-3.49;100.00;100882.74;109474;1251;58923;-74
2024/01/29 05:34:29;;;;;;;99.40;64.10;;;;;;;-3.51;100.00;100887.05;109490;1251;67105;-74
2024/01/29 05:36:55;;;;;;;97.30;62.70;;;;;;;-3.54;100.00;100886.98;109462;1251;61506;-73
2024/01/29 05:39:22;;;;;;;103.70;63.70;;;;;;;-3.55;100.00;100885.39;109430;1251;63978;-74
2024/01/29 05:41:48;;;;;;;96.80;63.90;;;;;;;-3.55;100.00;100891.83;108312;1251;1002997;-73
2024/01/29 05:44:15;;;;;;;99.80;67.90;;;;;;;-3.56;100.00;100893.36;108690;1251;1002328;-74
2024/01/29 05:46:42;;;;;;;102.00;63.80;;;;;;;-3.58;100.00;100893.67;109471;1251;66977;-72
2024/01/29 05:49:09;;;;;;;103.30;64.40;;;;;;;-3.59;100.00;100893.65;109397;1251;61268;-73
2024/01/29 05:51:35;;;;;;;102.50;64.10;;;;;;;-3.57;100.00;100894.73;109458;1251;64975;-73
2024/01/29 05:54:02;;;;;;;92.30;64.50;;;;;;;-3.56;100.00;100891.63;109477;1251;59017;-73
2024/01/29 05:56:29;;;;;;;103.20;68.30;;;;;;;-3.57;100.00;100892.48;109478;1251;58915;-73
2024/01/29 05:58:55;;;;;;;102.50;68.00;;;;;;;-3.60;100.00;100893.80;109480;1251;67173;-74
2024/01/29 06:01:22;;;;;;;111.60;70.90;;;;;;;-3.62;100.00;100898.63;109491;1251;61140;-74
2024/01/29 06:03:49;;;;;;;118.40;78.20;;;;;;;-3.64;100.00;100903.79;109471;1251;64100;-73
2024/01/29 06:06:15;;;;;;;108.50;73.60;;;;;;;-3.66;100.00;100902.38;109367;1251;59029;-73
2024/01/29 06:08:42;;;;;;;99.70;68.20;;;;;;;-3.67;100.00;100899.89;109470;1251;59136;-73
2024/01/29 06:11:08;;;;;;;103.70;65.30;;;;;;;-3.71;100.00;100897.91;109503;1251;67145;-73
2024/01/29 06:13:35;;;;;;;108.80;70.10;;;;;;;-3.74;100.00;100895.23;109516;1251;61221;-74
2024/01/29 06:16:01;;;;;;;111.20;71.60;;;;;;;-3.76;100.00;100891.38;109436;1251;65100;-74
2024/01/29 06:18:28;;;;;;;100.80;67.60;;;;;;;-3.76;100.00;100890.34;109473;1251;59295;-75
2024/01/29 06:20:54;;;;;;;106.90;69.20;;;;;;;-3.76;100.00;100895.04;109473;1251;59175;-73
2024/01/29 06:23:21;;;;;;;107.80;68.00;;;;;;;-3.76;100.00;100897.82;109452;1251;65740;-73
2024/01/29 06:25:48;;;;;;;102.60;67.80;;;;;;;-3.77;100.00;100894.65;109444;1251;60164;-74
2024/01/29 06:28:14;;;;;;;94.00;64.20;;;;;;;-3.78;100.00;100898.80;109458;1251;65120;-73
2024/01/29 06:30:41;;;;;;;107.40;66.70;;;;;;;-3.78;100.00;100905.91;109461;1251;59160;-74
2024/01/29 06:33:08;;;;;;;100.50;65.60;;;;;;;-3.79;100.00;100910.92;109448;1251;59044;-74
2024/01/29 06:35:34;;;;;;;96.00;62.20;;;;;;;-3.79;100.00;100917.53;109476;1251;67344;-73
2024/01/29 06:38:02;;;;;;;103.40;68.50;;;;;;;-3.79;100.00;100918.04;109480;1251;61027;-74
2024/01/29 06:40:29;;;;;;;105.90;69.50;;;;;;;-3.79;100.00;100919.08;109343;1251;64228;-73
2024/01/29 06:42:56;;;;;;;104.60;67.60;;;;;;;-3.76;100.00;100923.33;109113;1251;59141;-73
2024/01/29 06:45:23;;;;;;;108.40;66.90;;;;;;;-3.72;100.00;100924.98;108705;1251;1002584;-74
2024/01/29 06:47:49;;;;;;;116.20;73.30;;;;;;;-3.68;100.00;100926.63;108712;1251;1003194;-74
2024/01/29 06:50:16;;;;;;;114.90;73.80;;;;;;;-3.63;100.00;100926.06;108693;1251;1002910;-74
2024/01/29 06:52:43;;;;;;;111.70;72.50;;;;;;;-3.55;100.00;100931.44;109437;1251;59180;-73
2024/01/29 06:55:10;;;;;;;110.60;71.80;;;;;;;-3.46;100.00;100926.06;109453;1251;58938;-73
2024/01/29 06:57:36;;;;;;;115.90;76.20;;;;;;;-3.37;100.00;100924.31;109326;1251;58982;-74
2024/01/29 07:00:03;;;;;;;112.30;72.30;;;;;;;-3.30;100.00;100923.09;109480;1251;67077;-73
2024/01/29 07:02:30;;;;;;;114.90;75.00;;;;;;;-3.24;100.00;100917.13;109127;1251;61060;-73
2024/01/29 07:04:57;;;;;;;118.80;77.00;;;;;;;-3.19;100.00;100914.61;109472;1251;63997;-73
2024/01/29 07:07:23;;;;;;;121.20;77.90;;;;;;;-3.12;100.00;100914.24;109467;1252;58957;-73
2024/01/29 07:09:54;;;;;;;107.10;73.40;;;;;;;-3.06;100.00;100909.48;109497;1251;59467;-76
2024/01/29 07:12:20;;;;;;;109.10;75.30;;;;;;;-2.99;100.00;100908.40;108745;1251;1002204;-73
2024/01/29 07:14:47;;;;;;;111.10;75.20;;;;;;;-2.92;100.00;100913.58;109451;1251;59908;-74
2024/01/29 07:17:14;;;;;;;111.60;78.20;;;;;;;-2.87;100.00;100911.41;109464;1251;65250;-74
2024/01/29 07:19:40;;;;;;;111.10;75.20;;;;;;;-2.82;100.00;100916.18;109471;1251;59022;-73
2024/01/29 07:22:08;;;;;;;109.90;75.00;;;;;;;-2.78;100.00;100918.86;109503;1251;59378;-73
2024/01/29 07:24:35;;;;;;;109.40;74.60;;;;;;;-2.75;100.00;100918.92;109477;1251;65972;-72
2024/01/29 07:27:02;;;;;;;117.70;80.20;;;;;;;-2.68;100.00;100917.48;109442;1251;61014;-73
2024/01/29 07:29:29;;;;;;;122.00;81.60;;;;;;;-2.60;100.00;100911.18;109449;1251;64948;-74
2024/01/29 07:31:56;;;;;;;122.90;80.40;;;;;;;-2.51;100.00;100903.17;109455;1251;59090;-73
2024/01/29 07:34:23;;;;;;;117.90;83.70;;;;;;;-2.41;100.00;100901.92;109491;1251;59001;-73
2024/01/29 07:36:50;;;;;;;115.90;79.40;;;;;;;-2.34;100.00;100901.17;109451;1251;67166;-74
2024/01/29 07:39:16;;;;;;;114.90;78.10;;;;;;;-2.26;100.00;100903.58;109476;1251;60284;-74
2024/01/29 07:41:43;;;;;;;115.20;81.60;;;;;;;-2.17;100.00;100905.63;109463;1251;63948;-72
2024/01/29 07:44:09;;;;;;;115.40;78.70;;;;;;;-2.09;100.00;100904.54;109469;1252;58960;-72
2024/01/29 07:46:36;;;;;;;111.90;77.20;;;;;;;-2.01;100.00;100905.18;109431;1251;59285;-73
2024/01/29 07:49:03;;;;;;;103.60;71.80;;;;;;;-1.94;100.00;100905.98;109468;1251;66991;-73
2024/01/29 07:51:30;;;;;;;102.40;73.10;;;;;;;-1.85;100.00;100909.40;109519;1251;60747;-73
2024/01/29 07:53:56;;;;;;;100.90;70.00;;;;;;;-1.77;100.00;100903.25;109469;1251;65330;-73
2024/01/29 07:56:23;;;;;;;94.20;65.60;;;;;;;-1.69;100.00;100897.61;109467;1251;59262;-72
2024/01/29 07:58:50;;;;;;;91.20;64.10;;;;;;;-1.62;100.00;100892.30;109460;1251;59013;-73
2024/01/29 08:01:16;;;;;;;93.00;62.80;;;;;;;-1.54;100.00;100894.14;109316;1251;64735;-73
2024/01/29 08:03:43;;;;;;;90.10;62.70;;;;;;;-1.46;100.00;100901.03;109487;1251;59844;-72
2024/01/29 08:06:10;;;;;;;94.50;63.40;;;;;;;-1.39;100.00;100904.45;109470;1251;64056;-73
2024/01/29 08:08:37;;;;;;;93.50;64.40;;;;;;;-1.30;100.00;100897.92;109488;1251;58986;-73
2024/01/29 08:11:03;;;;;;;98.20;68.60;;;;;;;-1.23;100.00;100894.00;109359;1251;60021;-73
2024/01/29 08:13:30;;;;;;;94.80;66.90;;;;;;;-1.15;100.00;100887.63;109484;1251;66959;-74
2024/01/29 08:15:59;;;;;;;99.90;71.80;;;;;;;-1.09;100.00;100883.86;109513;1251;59863;-73
2024/01/29 08:18:25;;;;;;;114.60;81.10;;;;;;;-1.01;100.00;100885.52;109453;1251;64042;-74
2024/01/29 08:20:52;;;;;;;97.40;68.30;;;;;;;-0.93;100.00;100882.81;109447;1251;58959;-72
2024/01/29 08:23:18;;;;;;;97.20;69.70;;;;;;;-0.86;100.00;100884.09;109476;1251;59015;-72
2024/01/29 08:25:45;;;;;;;96.40;70.10;;;;;;;-0.79;100.00;100887.65;109447;1251;66235;-74
2024/01/29 08:28:12;;;;;;;111.00;84.30;;;;;;;-0.73;100.00;100888.23;109482;1251;60097;-73
2024/01/29 08:30:38;;;;;;;115.00;84.80;;;;;;;-0.67;100.00;100889.35;109467;1251;65245;-73
2024/01/29 08:33:05;;;;;;;109.90;88.00;;;;;;;-0.60;100.00;100885.92;109453;1251;59069;-73
2024/01/29 08:35:31;;;;;;;118.20;86.90;;;;;;;-0.53;100.00;100886.86;109456;1251;59254;-73
2024/01/29 08:37:59;;;;;;;98.20;72.20;;;;;;;-0.46;100.00;100888.67;109465;1251;67006;-73
2024/01/29 08:40:25;;;;;;;103.20;74.40;;;;;;;-0.39;100.00;100888.54;109456;1251;61080;-74
2024/01/29 08:42:52;;;;;;;109.00;83.00;;;;;;;-0.32;100.00;100895.23;109465;1251;62729;-73
2024/01/29 08:45:19;;;;;;;97.30;70.50;;;;;;;-0.25;100.00;100898.08;109134;1251;59101;-74
2024/01/29 08:47:45;;;;;;;93.70;67.90;;;;;;;-0.17;100.00;100894.30;109337;1251;59038;-73
2024/01/29 08:50:12;;;;;;;93.90;68.80;;;;;;;-0.09;100.00;100889.30;109485;1251;67138;-74
2024/01/29 08:52:39;;;;;;;95.30;68.20;;;;;;;-0.02;100.00;100882.70;109537;1251;60994;-73
2024/01/29 08:55:07;;;;;;;107.60;79.40;;;;;;;0.07;100.00;100884.67;109410;1251;73653;-73
2024/01/29 08:57:33;;;;;;;92.10;72.80;;;;;;;0.14;100.00;100883.32;109213;1255;59082;-73
2024/01/29 09:00:00;;;;;;;84.30;63.30;;;;;;;0.21;100.00;100888.95;109431;1251;59380;-73
2024/01/29 09:02:29;;;;;;;80.30;59.20;;;;;;;0.28;100.00;100892.66;109257;1251;66028;-74
2024/01/29 09:04:55;;;;;;;83.10;62.20;;;;;;;0.34;100.00;100893.74;109403;1251;59819;-74
2024/01/29 09:07:22;;;;;;;95.80;70.20;;;;;;;0.40;100.00;100895.52;109448;1251;64082;-74
2024/01/29 09:09:48;;;;;;;93.70;70.80;;;;;;;0.47;100.00;100891.01;109449;1251;58918;-72
2024/01/29 09:12:15;;;;;;;89.30;66.40;;;;;;;0.55;100.00;100890.16;109494;1251;58852;-74
2024/01/29 09:14:42;;;;;;;89.00;62.60;;;;;;;0.62;100.00;100893.71;109407;1251;66974;-74
2024/01/29 09:17:08;;;;;;;87.70;63.70;;;;;;;0.69;100.00;100892.33;109489;1251;60100;-74
2024/01/29 09:19:35;;;;;;;89.90;66.00;;;;;;;0.77;100.00;100893.59;109470;1251;65360;-73
2024/01/29 09:22:01;;;;;;;83.80;62.70;;;;;;;0.84;100.00;100896.06;109444;1251;58998;-73
2024/01/29 09:24:28;;;;;;;82.40;62.00;;;;;;;0.90;100.00;100893.10;109525;1251;58895;-73
2024/01/29 09:26:54;;;;;;;78.30;57.20;;;;;;;0.97;100.00;100886.64;109504;1251;67013;-73
2024/01/29 09:29:21;;;;;;;76.20;54.30;;;;;;;1.06;100.00;100884.91;109483;1251;61113;-73
2024/01/29 09:31:48;;;;;;;72.10;51.40;;;;;;;1.14;100.00;100886.85;109451;1251;63869;-74
2024/01/29 09:34:15;;;;;;;66.90;49.80;;;;;;;1.21;100.00;100889.48;109492;1251;59025;-73
2024/01/29 09:36:41;;;;;;;65.00;49.20;;;;;;;1.28;100.00;100883.20;109399;1255;59068;-73
2024/01/29 09:39:08;;;;;;;60.90;44.20;;;;;;;1.36;100.00;100881.46;109495;1251;75987;-79
2024/01/29 09:41:36;;;;;;;66.20;49.60;;;;;;;1.42;100.00;100879.02;109273;1251;60154;-77
2024/01/29 09:44:07;;;;;;;64.80;50.00;;;;;;;1.48;100.00;100878.14;106952;1251;1002725;-79
2024/01/29 09:46:37;;;;;;;66.90;49.20;;;;;;;1.57;100.00;100875.16;109324;1252;59251;-77
2024/01/29 09:49:05;;;;;;;65.10;48.30;;;;;;;1.65;100.00;100873.77;109193;1252;59074;-80
2024/01/29 09:51:33;;;;;;;58.70;42.90;;;;;;;1.71;100.00;100882.34;109384;1252;67200;-78
2024/01/29 09:54:01;;;;;;;52.80;41.80;;;;;;;1.79;100.00;100880.59;109391;1252;59858;-78
2024/01/29 09:56:28;;;;;;;54.30;40.60;;;;;;;1.88;100.00;100879.00;109390;1253;64711;-78
2024/01/29 09:58:55;;;;;;;52.00;38.70;;;;;;;1.96;100.00;100876.54;109200;1254;59116;-77
2024/01/29 10:01:23;;;;;;;55.00;42.20;;;;;;;2.05;100.00;100878.98;109064;1254;121991;-78
2024/01/29 10:03:50;;;;;;;52.40;40.60;;;;;;;2.15;100.00;100883.88;109019;1254;67035;-77
2024/01/29 10:06:16;;;;;;;54.90;41.70;;;;;;;2.23;100.00;100884.02;109277;1254;60982;-77
2024/01/29 10:08:43;;;;;;;54.50;38.70;;;;;;;2.31;100.00;100882.27;109251;1254;63947;-77
2024/01/29 10:11:11;;;;;;;54.30;43.00;;;;;;;2.38;100.00;100877.32;109249;1254;59079;-73
2024/01/29 10:13:38;;;;;;;57.10;42.60;;;;;;;2.47;100.00;100877.81;109249;1254;59017;-77
2024/01/29 10:16:06;;;;;;;54.30;43.00;;;;;;;2.54;100.00;100877.77;109129;1254;66101;-77
2024/01/29 10:18:32;;;;;;;56.20;43.00;;;;;;;2.59;100.00;100869.00;109276;1254;60020;-78
2024/01/29 10:21:04;;;;;;;61.80;43.90;;;;;;;2.67;100.00;100870.02;109246;1254;63656;-78
2024/01/29 10:23:30;;;;;;;56.90;45.70;;;;;;;2.74;100.00;100861.73;109231;1254;59079;-78
2024/01/29 10:26:00;;;;;;;56.50;43.00;;;;;;;2.78;100.00;100865.39;109137;1254;59466;-77
2024/01/29 10:28:27;;;;;;;59.50;42.10;;;;;;;2.84;100.00;100865.38;109237;1254;67150;-76
2024/01/29 10:30:55;;;;;;;53.70;39.70;;;;;;;2.92;100.00;100862.87;109409;1252;61078;-77
2024/01/29 10:33:22;;;;;;;53.30;41.00;;;;;;;2.99;100.00;100864.92;109502;1252;65023;-77
2024/01/29 10:35:49;;;;;;;50.70;37.90;;;;;;;3.04;100.00;100871.41;109484;1251;59014;-78
2024/01/29 10:38:20;;;;;;;54.10;38.50;;;;;;;3.10;100.00;100872.41;109510;1252;59095;-77
2024/01/29 10:40:48;;;;;;;51.20;37.40;;;;;;;3.17;100.00;100866.06;109470;1252;65736;-77
2024/01/29 10:43:21;;;;;;;45.20;34.30;;;;;;;3.25;100.00;100866.35;109510;1252;59267;-77
2024/01/29 10:45:53;;;;;;;47.20;34.90;;;;;;;3.33;100.00;100865.94;109174;1253;64186;-76
2024/01/29 10:48:22;;;;;;;60.60;47.70;;;;;;;3.40;100.00;100859.38;109467;1251;59490;-76